createdAt,value
2018-04-16T00:00:43.177Z,95.60
2018-04-16T00:03:10.729Z,95.89
2018-04-16T00:05:38.361Z,95.76
2018-04-16T00:08:05.951Z,95.83
2018-04-16T00:10:33.544Z,95.89
2018-04-16T00:13:01.178Z,96.43
2018-04-16T00:15:28.742Z,96.19
2018-04-16T00:17:56.324Z,95.86
2018-04-16T00:20:23.879Z,95.85
2018-04-16T00:22:51.452Z,96.10
2018-04-16T00:25:19.044Z,96.51
2018-04-16T00:27:46.605Z,96.48
2018-04-16T00:30:14.178Z,96.17
2018-04-16T00:32:47.371Z,96.19
2018-04-16T00:35:20.470Z,96.09
2018-04-16T00:37:53.577Z,96.13
2018-04-16T00:40:26.803Z,96.13
2018-04-16T00:42:59.970Z,96.69
2018-04-16T00:45:33.189Z,96.77
2018-04-16T00:48:06.369Z,96.73
2018-04-16T00:50:39.496Z,96.95
2018-04-16T00:53:12.789Z,97.07
2018-04-16T00:55:45.998Z,97.18
2018-04-16T00:58:19.056Z,97.06
2018-04-16T01:00:52.209Z,96.91
2018-04-16T01:03:25.313Z,97.15
2018-04-16T01:05:58.405Z,97.21
2018-04-16T01:08:31.536Z,97.35
2018-04-16T01:11:04.644Z,97.63
2018-04-16T01:13:37.729Z,97.53
2018-04-16T01:16:10.908Z,97.46
2018-04-16T01:18:43.990Z,97.28
2018-04-16T01:21:17.077Z,97.14
2018-04-16T01:23:50.056Z,97.43
2018-04-16T01:26:23.185Z,98.03
2018-04-16T01:28:56.414Z,98.01
2018-04-16T01:34:34.554Z,98.00
2018-04-16T01:37:08.332Z,98.15
2018-04-16T01:39:41.450Z,98.36
2018-04-16T01:42:14.695Z,98.55
2018-04-16T01:44:47.782Z,98.39
2018-04-16T01:47:20.822Z,98.30
2018-04-16T01:49:54.003Z,98.38
2018-04-16T01:52:27.172Z,98.65
2018-04-16T01:55:00.254Z,98.46
2018-04-16T01:57:33.300Z,98.22
2018-04-16T02:00:06.315Z,98.29
2018-04-16T02:02:39.446Z,98.30
2018-04-16T02:05:12.480Z,98.18
2018-04-16T02:07:45.656Z,98.80
2018-04-16T02:10:18.775Z,99.07
2018-04-16T02:12:52.044Z,99.12
2018-04-16T02:15:25.106Z,99.06
2018-04-16T02:17:58.169Z,99.70
2018-04-16T02:23:38.614Z,99.61
2018-04-16T02:26:11.890Z,99.83
2018-04-16T02:28:45.063Z,100.00
2018-04-16T02:31:18.105Z,99.89
2018-04-16T02:33:51.246Z,99.93
2018-04-16T02:36:24.426Z,100.00
2018-04-16T02:38:57.645Z,100.00
2018-04-16T02:41:30.716Z,100.00
2018-04-16T02:44:03.893Z,100.00
2018-04-16T02:46:36.976Z,99.91
2018-04-16T02:49:10.171Z,99.91
2018-04-16T02:51:43.253Z,99.43
2018-04-16T02:54:16.363Z,99.64
2018-04-16T02:56:49.599Z,99.59
2018-04-16T02:59:22.627Z,99.80
2018-04-16T03:01:55.847Z,99.38
2018-04-16T03:04:28.948Z,99.39
2018-04-16T03:07:02.028Z,99.36
2018-04-16T03:09:35.062Z,99.50
2018-04-16T03:12:08.114Z,100.00
2018-04-16T03:14:41.377Z,99.75
2018-04-16T03:17:14.455Z,99.67
2018-04-16T03:19:47.586Z,99.98
2018-04-16T03:22:20.741Z,100.00
2018-04-16T03:24:53.942Z,99.77
2018-04-16T03:27:27.030Z,99.91
2018-04-16T03:30:00.253Z,99.81
2018-04-16T03:32:33.297Z,99.83
2018-04-16T03:38:13.233Z,100.00
2018-04-16T03:40:46.297Z,100.00
2018-04-16T03:43:19.345Z,100.00
2018-04-16T03:45:52.576Z,100.00
2018-04-16T03:48:25.738Z,100.00
2018-04-16T03:54:04.066Z,100.00
2018-04-16T03:56:31.656Z,100.00
2018-04-16T03:58:59.210Z,100.00
2018-04-16T04:01:26.807Z,100.00
2018-04-16T04:03:54.409Z,100.00
2018-04-16T04:06:22.041Z,100.00
2018-04-16T04:08:50.343Z,100.00
2018-04-16T04:11:17.934Z,100.00
2018-04-16T04:13:46.565Z,100.00
2018-04-16T04:16:14.186Z,100.00
2018-04-16T04:18:41.858Z,100.00
2018-04-16T04:21:09.438Z,100.00
2018-04-16T04:26:51.453Z,100.00
2018-04-16T04:29:31.032Z,100.00
2018-04-16T04:31:58.652Z,100.00
2018-04-16T04:34:26.256Z,100.00
2018-04-16T04:36:54.093Z,100.00
2018-04-16T04:39:21.689Z,100.00
2018-04-16T04:41:49.249Z,100.00
2018-04-16T04:44:16.871Z,100.00
2018-04-16T04:46:44.568Z,100.00
2018-04-16T04:49:12.159Z,100.00
2018-04-16T04:51:39.780Z,100.00
2018-04-16T04:54:07.415Z,100.00
2018-04-16T04:56:34.992Z,100.00
2018-04-16T04:59:02.585Z,100.00
2018-04-16T05:01:30.225Z,100.00
2018-04-16T05:03:57.857Z,100.00
2018-04-16T05:06:25.484Z,100.00
2018-04-16T05:08:53.153Z,100.00
2018-04-16T05:11:20.815Z,100.00
2018-04-16T05:13:48.391Z,100.00
2018-04-16T05:16:15.987Z,100.00
2018-04-16T05:18:43.578Z,100.00
2018-04-16T05:21:11.149Z,100.00
2018-04-16T05:23:38.788Z,100.00
2018-04-16T05:26:06.422Z,100.00
2018-04-16T05:28:34.003Z,100.00
2018-04-16T05:31:01.585Z,100.00
2018-04-16T05:33:29.166Z,100.00
2018-04-16T05:35:56.725Z,100.00
2018-04-16T05:38:24.349Z,100.00
2018-04-16T05:40:51.921Z,100.00
2018-04-16T05:43:19.548Z,100.00
2018-04-16T05:45:47.120Z,100.00
2018-04-16T05:48:14.697Z,100.00
2018-04-16T05:50:42.263Z,100.00
2018-04-16T05:53:09.859Z,100.00
2018-04-16T05:55:37.424Z,100.00
2018-04-16T05:58:04.977Z,100.00
2018-04-16T06:00:32.553Z,100.00
2018-04-16T06:03:00.115Z,100.00
2018-04-16T06:05:27.681Z,100.00
2018-04-16T06:07:55.253Z,100.00
2018-04-16T06:10:22.824Z,100.00
2018-04-16T06:12:50.501Z,100.00
2018-04-16T06:15:18.069Z,100.00
2018-04-16T06:17:45.663Z,100.00
2018-04-16T06:20:13.246Z,100.00
2018-04-16T06:22:40.832Z,100.00
2018-04-16T06:25:08.639Z,100.00
2018-04-16T06:27:36.231Z,100.00
2018-04-16T06:30:03.820Z,100.00
2018-04-16T06:32:31.428Z,100.00
2018-04-16T06:34:59.006Z,100.00
2018-04-16T06:37:26.585Z,100.00
2018-04-16T06:39:54.144Z,100.00
2018-04-16T06:42:21.781Z,100.00
2018-04-16T06:44:49.308Z,100.00
2018-04-16T06:47:16.877Z,100.00
2018-04-16T06:49:44.447Z,100.00
2018-04-16T06:52:12.081Z,100.00
2018-04-16T06:54:39.655Z,100.00
2018-04-16T06:57:07.239Z,100.00
2018-04-16T06:59:34.840Z,100.00
2018-04-16T07:02:02.459Z,100.00
2018-04-16T07:04:30.035Z,100.00
2018-04-16T07:06:57.624Z,100.00
2018-04-16T07:09:25.192Z,100.00
2018-04-16T07:11:52.780Z,100.00
2018-04-16T07:14:20.405Z,100.00
2018-04-16T07:16:47.996Z,100.00
2018-04-16T07:19:15.568Z,100.00
2018-04-16T07:21:43.179Z,100.00
2018-04-16T07:24:10.735Z,100.00
2018-04-16T07:26:38.372Z,100.00
2018-04-16T07:29:05.995Z,100.00
2018-04-16T07:31:33.588Z,100.00
2018-04-16T07:34:01.145Z,100.00
2018-04-16T07:36:28.739Z,100.00
2018-04-16T07:38:56.291Z,100.00
2018-04-16T07:41:23.880Z,100.00
2018-04-16T07:43:51.453Z,100.00
2018-04-16T07:46:18.985Z,100.00
2018-04-16T07:48:46.548Z,100.00
2018-04-16T07:51:14.125Z,100.00
2018-04-16T07:53:41.905Z,100.00
2018-04-16T07:56:09.479Z,100.00
2018-04-16T07:58:37.050Z,100.00
2018-04-16T08:01:04.603Z,100.00
2018-04-16T08:03:32.185Z,100.00
2018-04-16T08:05:59.775Z,100.00
2018-04-16T08:08:27.347Z,100.00
2018-04-16T08:10:54.897Z,100.00
2018-04-16T08:13:22.460Z,100.00
2018-04-16T08:15:50.022Z,100.00
2018-04-16T08:18:17.637Z,100.00
2018-04-16T08:20:45.204Z,100.00
2018-04-16T08:23:12.801Z,100.00
2018-04-16T08:25:40.376Z,100.00
2018-04-16T08:28:07.925Z,100.00
2018-04-16T08:30:35.475Z,100.00
2018-04-16T08:33:03.035Z,100.00
2018-04-16T08:35:30.627Z,100.00
2018-04-16T08:37:58.296Z,100.00
2018-04-16T08:40:25.944Z,100.00
2018-04-16T08:42:53.508Z,100.00
2018-04-16T08:45:21.083Z,100.00
2018-04-16T08:47:48.709Z,100.00
2018-04-16T08:50:16.312Z,100.00
2018-04-16T08:52:43.930Z,100.00
2018-04-16T08:55:11.482Z,100.00
2018-04-16T08:57:39.092Z,100.00
2018-04-16T09:00:06.641Z,100.00
2018-04-16T09:02:34.282Z,100.00
2018-04-16T09:05:01.819Z,99.07
2018-04-16T09:07:29.381Z,100.00
2018-04-16T09:09:56.935Z,100.00
2018-04-16T09:12:24.490Z,100.00
2018-04-16T09:14:52.068Z,99.29
2018-04-16T09:17:19.626Z,98.83
2018-04-16T09:19:47.263Z,98.82
2018-04-16T09:22:14.855Z,100.00
2018-04-16T09:24:42.431Z,98.90
2018-04-16T09:27:10.603Z,99.28
2018-04-16T09:29:38.228Z,98.66
2018-04-16T09:32:05.805Z,98.69
2018-04-16T09:34:33.377Z,99.25
2018-04-16T09:37:01.020Z,99.61
2018-04-16T09:39:28.576Z,98.38
2018-04-16T09:41:56.159Z,97.16
2018-04-16T09:44:23.715Z,94.60
2018-04-16T09:46:51.289Z,97.00
2018-04-16T09:49:18.904Z,96.51
2018-04-16T09:51:46.502Z,95.09
2018-04-16T09:54:14.066Z,95.01
2018-04-16T09:56:41.636Z,97.03
2018-04-16T09:59:09.196Z,94.46
2018-04-16T10:01:38.728Z,92.50
2018-04-16T10:04:06.291Z,92.48
2018-04-16T10:06:33.898Z,91.17
2018-04-16T10:09:01.482Z,91.47
2018-04-16T10:11:29.043Z,89.63
2018-04-16T10:13:56.579Z,90.01
2018-04-16T10:16:24.161Z,88.90
2018-04-16T10:18:51.726Z,92.73
2018-04-16T10:21:19.261Z,92.72
2018-04-16T10:23:46.838Z,92.30
2018-04-16T10:26:14.412Z,90.53
2018-04-16T10:28:41.975Z,89.88
2018-04-16T10:31:09.538Z,88.47
2018-04-16T10:33:37.099Z,89.75
2018-04-16T10:36:04.668Z,89.16
2018-04-16T10:38:32.216Z,88.20
2018-04-16T10:40:59.799Z,87.51
2018-04-16T10:43:27.415Z,87.47
2018-04-16T10:45:54.980Z,87.97
2018-04-16T10:48:22.550Z,86.81
2018-04-16T10:50:50.115Z,86.87
2018-04-16T10:53:17.675Z,86.32
2018-04-16T10:55:45.229Z,87.74
2018-04-16T10:58:12.793Z,87.18
2018-04-16T11:00:40.357Z,86.76
2018-04-16T11:03:07.917Z,85.10
2018-04-16T11:05:35.508Z,85.58
2018-04-16T11:08:03.073Z,84.22
2018-04-16T11:10:30.623Z,83.58
2018-04-16T11:12:58.185Z,85.40
2018-04-16T11:15:25.736Z,84.13
2018-04-16T11:17:53.298Z,82.03
2018-04-16T11:20:20.852Z,82.25
2018-04-16T11:22:48.389Z,84.25
2018-04-16T11:25:15.978Z,83.48
2018-04-16T11:27:43.529Z,82.62
2018-04-16T11:30:11.155Z,81.20
2018-04-16T11:32:38.703Z,81.34
2018-04-16T11:35:06.249Z,80.90
2018-04-16T11:37:33.821Z,81.46
2018-04-16T11:40:01.430Z,80.68
2018-04-16T11:42:28.985Z,83.39
2018-04-16T11:44:56.520Z,82.62
2018-04-16T11:47:24.111Z,81.64
2018-04-16T11:49:51.700Z,81.94
2018-04-16T11:52:19.261Z,80.18
2018-04-16T11:54:46.832Z,79.22
2018-04-16T11:57:14.375Z,78.26
2018-04-16T11:59:41.960Z,78.60
2018-04-16T12:02:09.607Z,78.81
2018-04-16T12:04:37.230Z,78.34
2018-04-16T12:07:04.795Z,78.94
2018-04-16T12:09:32.352Z,80.13
2018-04-16T12:11:59.964Z,79.52
2018-04-16T12:14:27.543Z,77.95
2018-04-16T12:16:55.123Z,77.64
2018-04-16T12:19:22.704Z,77.89
2018-04-16T12:21:50.279Z,77.59
2018-04-16T12:24:17.899Z,77.58
2018-04-16T12:26:45.561Z,80.04
2018-04-16T12:29:13.193Z,77.93
2018-04-16T12:31:40.741Z,77.73
2018-04-16T12:34:08.308Z,78.13
2018-04-16T12:36:35.936Z,78.66
2018-04-16T12:39:03.522Z,78.03
2018-04-16T12:41:31.065Z,77.35
2018-04-16T12:43:58.641Z,77.36
2018-04-16T12:46:26.181Z,74.09
2018-04-16T12:48:53.752Z,74.44
2018-04-16T12:51:21.335Z,73.98
2018-04-16T12:53:48.893Z,74.44
2018-04-16T12:56:16.501Z,72.86
2018-04-16T12:58:44.054Z,72.54
2018-04-16T13:01:11.654Z,73.36
2018-04-16T13:03:39.289Z,72.87
2018-04-16T13:06:06.849Z,72.73
2018-04-16T13:08:34.433Z,72.37
2018-04-16T13:11:01.983Z,72.80
2018-04-16T13:13:29.555Z,71.88
2018-04-16T13:15:57.116Z,71.60
2018-04-16T13:18:24.674Z,71.31
2018-04-16T13:20:52.255Z,71.77
2018-04-16T13:23:19.812Z,71.14
2018-04-16T13:25:47.391Z,70.55
2018-04-16T13:28:14.957Z,70.80
2018-04-16T13:30:42.498Z,70.21
2018-04-16T13:33:10.100Z,70.71
2018-04-16T13:35:37.690Z,72.18
2018-04-16T13:38:05.235Z,73.85
2018-04-16T13:40:32.814Z,71.70
2018-04-16T13:43:00.413Z,70.03
2018-04-16T13:45:27.977Z,70.44
2018-04-16T13:47:55.578Z,70.45
2018-04-16T13:50:23.141Z,69.47
2018-04-16T13:52:50.698Z,70.24
2018-04-16T13:55:18.260Z,70.30
2018-04-16T13:57:45.816Z,69.14
2018-04-16T14:00:13.362Z,70.49
2018-04-16T14:02:40.931Z,70.35
2018-04-16T14:05:08.482Z,70.34
2018-04-16T14:07:36.044Z,70.86
2018-04-16T14:10:03.769Z,70.49
2018-04-16T14:12:31.363Z,71.06
2018-04-16T14:14:58.900Z,71.82
2018-04-16T14:17:26.488Z,69.26
2018-04-16T14:19:54.080Z,70.23
2018-04-16T14:22:21.652Z,70.20
2018-04-16T14:24:49.262Z,69.05
2018-04-16T14:27:16.861Z,68.56
2018-04-16T14:29:44.429Z,68.46
2018-04-16T14:32:11.988Z,69.53
2018-04-16T14:34:39.541Z,67.95
2018-04-16T14:37:07.093Z,68.44
2018-04-16T14:39:34.625Z,68.60
2018-04-16T14:42:02.189Z,67.46
2018-04-16T14:44:29.812Z,67.50
2018-04-16T14:46:57.372Z,67.96
2018-04-16T14:49:24.940Z,67.31
2018-04-16T14:51:52.505Z,66.69
2018-04-16T14:54:20.148Z,65.71
2018-04-16T14:56:47.781Z,65.62
2018-04-16T14:59:15.336Z,65.25
2018-04-16T15:01:42.894Z,64.63
2018-04-16T15:04:10.467Z,65.64
2018-04-16T15:06:38.035Z,64.45
2018-04-16T15:09:06.403Z,66.31
2018-04-16T15:11:34.903Z,69.65
2018-04-16T15:14:02.542Z,66.46
2018-04-16T15:16:30.123Z,65.91
2018-04-16T15:18:57.724Z,66.69
2018-04-16T15:21:25.316Z,65.29
2018-04-16T15:23:52.887Z,65.67
2018-04-16T15:26:20.477Z,67.05
2018-04-16T15:28:48.037Z,65.93
2018-04-16T15:31:15.658Z,65.57
2018-04-16T15:33:43.343Z,65.41
2018-04-16T15:36:10.905Z,66.88
2018-04-16T15:38:38.464Z,68.22
2018-04-16T15:41:06.028Z,69.24
2018-04-16T15:43:33.692Z,69.90
2018-04-16T15:46:01.345Z,70.63
2018-04-16T15:48:28.921Z,71.14
2018-04-16T15:50:56.515Z,71.23
2018-04-16T15:53:24.098Z,71.13
2018-04-16T15:55:51.677Z,70.39
2018-04-16T15:58:19.245Z,69.80
2018-04-16T16:00:46.799Z,69.49
2018-04-16T16:03:14.428Z,69.05
2018-04-16T16:05:42.322Z,66.93
2018-04-16T16:08:09.992Z,67.37
2018-04-16T16:10:37.596Z,67.87
2018-04-16T16:13:05.963Z,67.42
2018-04-16T16:15:33.526Z,67.44
2018-04-16T16:18:01.162Z,68.19
2018-04-16T16:20:28.710Z,67.64
2018-04-16T16:22:56.261Z,67.97
2018-04-16T16:25:23.838Z,68.16
2018-04-16T16:27:51.447Z,68.30
2018-04-16T16:30:19.016Z,68.15
2018-04-16T16:32:46.609Z,68.04
2018-04-16T16:35:14.189Z,69.24
2018-04-16T16:37:41.729Z,69.96
2018-04-16T16:40:09.414Z,70.50
2018-04-16T16:42:37.009Z,70.86
2018-04-16T16:45:04.578Z,70.65
2018-04-16T16:47:32.559Z,70.22
2018-04-16T16:50:02.551Z,70.66
2018-04-16T16:52:30.073Z,70.69
2018-04-16T16:54:57.616Z,71.26
2018-04-16T16:57:25.169Z,71.12
2018-04-16T16:59:52.714Z,71.64
2018-04-16T17:02:20.265Z,71.97
2018-04-16T17:04:48.454Z,71.73
2018-04-16T17:07:17.869Z,72.29
2018-04-16T17:09:45.567Z,72.72
2018-04-16T17:12:14.006Z,72.85
2018-04-16T17:14:41.579Z,74.98
2018-04-16T17:17:09.206Z,75.25
2018-04-16T17:19:36.896Z,73.79
2018-04-16T17:22:04.752Z,73.78
2018-04-16T17:24:32.317Z,73.24
2018-04-16T17:26:59.864Z,74.03
2018-04-16T17:29:27.455Z,76.60
2018-04-16T17:31:55.003Z,76.14
2018-04-16T17:34:22.638Z,76.47
2018-04-16T17:36:50.690Z,76.09
2018-04-16T17:39:18.356Z,75.29
2018-04-16T17:41:45.898Z,75.50
2018-04-16T17:44:13.615Z,75.75
2018-04-16T17:46:41.204Z,75.53
2018-04-16T17:49:08.763Z,75.06
2018-04-16T17:51:36.561Z,75.58
2018-04-16T17:54:04.120Z,75.40
2018-04-16T17:56:32.510Z,75.50
2018-04-16T17:59:00.064Z,74.80
2018-04-16T18:01:27.665Z,75.78
2018-04-16T18:03:56.324Z,75.99
2018-04-16T18:06:23.968Z,76.89
2018-04-16T18:08:51.625Z,77.04
2018-04-16T18:11:19.189Z,79.96
2018-04-16T18:13:46.828Z,81.79
2018-04-16T18:16:14.413Z,83.70
2018-04-16T18:18:42.226Z,83.69
2018-04-16T18:21:10.740Z,84.10
2018-04-16T18:23:38.302Z,83.77
2018-04-16T18:26:05.878Z,83.89
2018-04-16T18:28:33.639Z,83.43
2018-04-16T18:31:01.201Z,84.07
2018-04-16T18:33:29.276Z,84.52
2018-04-16T18:35:57.036Z,84.59
2018-04-16T18:38:24.627Z,85.45
2018-04-16T18:40:52.960Z,85.59
2018-04-16T18:43:20.686Z,85.76
2018-04-16T18:45:48.760Z,86.47
2018-04-16T18:48:18.990Z,87.07
2018-04-16T18:50:47.640Z,87.51
2018-04-16T18:53:15.499Z,87.40
2018-04-16T18:55:43.284Z,87.64
2018-04-16T18:58:10.937Z,87.58
2018-04-16T19:00:38.468Z,87.75
2018-04-16T19:03:06.400Z,88.58
2018-04-16T19:05:34.113Z,88.41
2018-04-16T19:08:01.704Z,88.33
2018-04-16T19:10:29.329Z,88.20
2018-04-16T19:12:56.936Z,88.12
2018-04-16T19:15:28.189Z,87.88
2018-04-16T19:17:57.911Z,88.17
2018-04-16T19:20:31.509Z,88.44
2018-04-16T19:22:59.103Z,88.66
2018-04-16T19:25:26.788Z,89.16
2018-04-16T19:27:59.872Z,89.30
2018-04-16T19:30:27.481Z,89.27
2018-04-16T19:33:00.605Z,88.85
2018-04-16T19:35:31.428Z,88.96
2018-04-16T19:37:59.041Z,89.13
2018-04-16T19:40:26.598Z,89.31
2018-04-16T19:42:54.160Z,89.10
2018-04-16T19:45:21.758Z,89.24
2018-04-16T19:47:49.323Z,89.37
2018-04-16T19:50:17.106Z,88.78
2018-04-16T19:52:44.677Z,89.09
2018-04-16T19:55:12.247Z,89.12
2018-04-16T19:57:45.297Z,89.42
2018-04-16T20:00:12.827Z,88.94
2018-04-16T20:02:45.889Z,89.14
2018-04-16T20:05:13.476Z,89.13
2018-04-16T20:07:41.037Z,88.92
2018-04-16T20:10:08.629Z,89.27
2018-04-16T20:12:36.224Z,89.02
2018-04-16T20:15:03.860Z,89.04
2018-04-16T20:17:31.477Z,89.42
2018-04-16T20:19:59.043Z,89.20
2018-04-16T20:22:26.759Z,89.16
2018-04-16T20:24:54.309Z,89.39
2018-04-16T20:27:21.985Z,89.41
2018-04-16T20:29:49.597Z,89.37
2018-04-16T20:32:17.193Z,89.18
2018-04-16T20:34:44.840Z,89.50
2018-04-16T20:37:12.389Z,89.30
2018-04-16T20:39:40.041Z,89.64
2018-04-16T20:42:07.652Z,90.47
2018-04-16T20:44:35.228Z,90.09
2018-04-16T20:50:00.766Z,90.53
2018-04-16T20:52:28.367Z,90.80
2018-04-16T20:54:56.009Z,90.24
2018-04-16T20:57:23.667Z,90.80
2018-04-16T20:59:51.259Z,90.70
2018-04-16T21:02:18.893Z,91.18
2018-04-16T21:04:46.518Z,91.04
2018-04-16T21:07:14.124Z,91.04
2018-04-16T21:09:41.708Z,90.84
2018-04-16T21:12:10.140Z,91.23
2018-04-16T21:14:37.710Z,91.24
2018-04-16T21:17:05.403Z,91.34
2018-04-16T21:19:34.612Z,91.57
2018-04-16T21:22:02.258Z,91.81
2018-04-16T21:24:29.849Z,92.10
2018-04-16T21:26:57.417Z,91.34
2018-04-16T21:29:24.954Z,90.76
2018-04-16T21:31:52.575Z,90.72
2018-04-16T21:34:20.133Z,90.84
2018-04-16T21:36:47.692Z,90.92
2018-04-16T21:39:15.291Z,90.70
2018-04-16T21:41:42.844Z,89.43
2018-04-16T21:44:10.488Z,89.11
2018-04-16T21:46:38.072Z,90.38
2018-04-16T21:49:05.617Z,88.83
2018-04-16T21:51:33.213Z,87.83
2018-04-16T21:54:00.808Z,87.99
2018-04-16T21:56:28.391Z,87.68
2018-04-16T21:58:56.055Z,87.85
2018-04-16T22:01:24.600Z,87.54
2018-04-16T22:03:52.194Z,87.58
2018-04-16T22:06:19.775Z,87.68
2018-04-16T22:08:47.385Z,87.53
2018-04-16T22:11:14.980Z,87.23
2018-04-16T22:13:43.184Z,87.12
2018-04-16T22:16:10.787Z,87.18
2018-04-16T22:18:38.377Z,86.95
2018-04-16T22:21:05.989Z,86.96
2018-04-16T22:23:33.600Z,87.18
2018-04-16T22:26:01.213Z,86.91
2018-04-16T22:28:28.785Z,86.14
2018-04-16T22:30:56.345Z,86.55
2018-04-16T22:33:23.900Z,86.79
2018-04-16T22:35:51.460Z,87.33
2018-04-16T22:38:19.020Z,87.57
2018-04-16T22:40:46.573Z,87.62
2018-04-16T22:43:14.139Z,88.33
2018-04-16T22:45:41.728Z,87.57
2018-04-16T22:48:09.314Z,87.45
2018-04-16T22:50:36.895Z,87.11
2018-04-16T22:53:04.453Z,87.35
2018-04-16T22:55:32.036Z,87.41
2018-04-16T22:57:59.584Z,87.34
2018-04-16T23:00:27.159Z,86.92
2018-04-16T23:02:54.720Z,87.25
2018-04-16T23:05:22.302Z,87.33
2018-04-16T23:07:49.872Z,88.16
2018-04-16T23:10:17.450Z,87.90
2018-04-16T23:12:45.032Z,87.63
2018-04-16T23:15:12.584Z,87.64
2018-04-16T23:17:40.152Z,87.91
2018-04-16T23:20:07.704Z,88.48
2018-04-16T23:22:35.296Z,88.32
2018-04-16T23:25:02.849Z,88.72
2018-04-16T23:27:30.455Z,88.50
2018-04-16T23:29:58.018Z,88.65
2018-04-16T23:32:25.708Z,89.26
2018-04-16T23:34:53.295Z,89.44
2018-04-16T23:37:20.855Z,90.37
2018-04-16T23:39:48.417Z,91.50
2018-04-16T23:42:15.981Z,91.78
2018-04-16T23:44:43.536Z,91.79
2018-04-16T23:47:11.122Z,92.03
2018-04-16T23:49:38.695Z,92.35
2018-04-16T23:52:06.280Z,92.62
2018-04-16T23:54:33.859Z,93.32
2018-04-16T23:57:01.448Z,93.11
2018-04-16T23:59:29.541Z,93.36
